Aérodrome :
LOGIN :

S'inscrire | Disclaimer

   EN    FR    IT 

 










Légende :    VFR   VFR Marginal   IFR   IFR Intensif   IFR Très Intensif
Visi : 
Plafond : 
>= 8 km
>= 3000ft
5 à 8 km
1000 à 3000 ft
1500m à 5 km
500 à 1000 ft
800 à 1500m
200 à 500 ft
< 800m
< 200 ft
Symboles :   Orages  Brouillard  Fortes neiges  Fortes précipitations  Vent > 20 kt
SIGMETs :   Divers  Orages  Givrage  Turbulence  Onde Orograph.  Cendres Volcan.







- Altitude de l'aérodrome : 13 ft
- Code IATA : SNR
- Voir les cartes d'approche


LFRZ - St-Nazaire

DERNIER METAR :
  • 121530Z AUTO 08008KT CAVOK 06/03 Q1017 NOSIG

METARs EXPIRÉS :
  • 121500Z AUTO 07010KT 9999 FEW014 OVC054 06/04 Q1017 NOSIG
  • 121430Z AUTO 08008KT 9999 SCT013 OVC050 06/04 Q1017 NOSIG
  • 121400Z AUTO 09006KT 9999 BKN012 06/04 Q1018 BECMG BKN030
  • 121330Z AUTO 07008KT 9999 BKN013 OVC033 06/04 Q1018 BECMG BKN020
  • 121300Z AUTO 10008KT 9999 SCT010 OVC031 06/04 Q1018 NOSIG

TAF AMD TAF LFRZ
Valide du 12 à 13h jusqu'au 13 à 12h UTC


121341Z 1213/1312 12006KT 9999 BKN030
TEMPO 1213/1215 BKN012
TEMPO 1220/1302 BKN008
BECMG 1305/1307 12012KT
BECMG 1307/1309 BKN010
TEMPO 1309/1312 4000 RA BKN005
Pas de NOTAMs connus pour ce terrain.



MET'MAP, la Météo Aéronautique d'un coup d'oeil ! - Copyright ORBIFLY Décembre 2007 - Disclaimer

ORBIFLY MET'MAP TEAM :

Programmation & Développement : Alexandra Zaïnal
Conception & Développement : Baudouin d'Aumeries
Co-Programmation & Développement : Marc-Olivier Méhu
Soutien technique & logistique : Manuel Goepfert

Contact : metmap@orbifly.com




SOURCES & CREDITS :

   NOAA